Ana Sayfa
METAR-TAF:

METAR-TAF

Havaalanları :

Grant County Airport

Petersburg, Batı Virginia, Amerika Birleşik Devletleri

Enlem: 38-59N, Boylam: 079-08W, yükseklik: 293 m

Güncel hava durumu gözlemi

Rapor saat 15:35 UTC de 38 dakika önce yapıldı.
Sakin rüzgar
Sıcaklık 29°C
Nem 66%
Basınç 1020 hPa
Görüş mesafesi: 16.1 km
Açık gökyüzü

METAR: KW99 161535Z AUTO 00000KT 10SM CLR 29/22 A3013 RMK AO2 T02850221

Saat: 12:13 (16:13 UTC)


TAF: eksik

4.000'den fazla havaalanı için hava durumu gözlemleri ve tahminleri (METAR ve TAF raporları).

Kullanılabilir istasyonlar harita üzerinde sarı ve kırmızı noktalarla gösterilir.

İstasyonun adını görmek için fareyi noktanın üzerinde gezdirin.

Sonrasında hava gözlem ve tahminlerini görmek için tıklayın.

Haritayı değiştirmek için: yaklaştırmak için siyah artı işaretli yeşil düğmeye ve uzaklaştırmak için de eksi işaretli düğmeye hızla tıklayın; bitişik haritalar için yeşil okları kullanın.


METAR-TAF: